Time;durP1;ratioP1;P1;durP2;ratioP2;P2;SDS_P1;SDS_P2;PMS_P1;PMS_P2;Temp;Humidity;BMP_temperature;BMP_pressure;BME280_temperature;BME280_humidity;BME280_pressure;Samples;Min_cycle;Max_cycle;Signal;HPM_P1;HPM_P2
2022/02/21 00:02:24;;;;;;;4.05;2.25;;;6.10;98.70;;;;;;4940395;29;20027;-81
2022/02/21 00:04:50;;;;;;;4.47;2.15;;;6.10;98.70;;;;;;4940336;29;20081;-81
2022/02/21 00:07:16;;;;;;;3.47;1.90;;;6.10;98.20;;;;;;4957445;28;20035;-81
2022/02/21 00:09:41;;;;;;;3.97;2.47;;;6.20;96.80;;;;;;4957273;29;20039;-76
2022/02/21 00:12:08;;;;;;;5.90;4.00;;;6.20;96.40;;;;;;4940093;29;20024;-81
2022/02/21 00:14:33;;;;;;;4.47;2.03;;;6.30;94.80;;;;;;4940122;29;20027;-81
2022/02/21 00:16:59;;;;;;;4.68;1.85;;;6.30;95.70;;;;;;4957446;28;20047;-81
2022/02/21 00:19:24;;;;;;;4.25;2.20;;;6.40;94.50;;;;;;4939779;29;20073;-81
2022/02/21 00:21:50;;;;;;;4.25;2.00;;;6.40;94.20;;;;;;4939998;29;20023;-74
2022/02/21 00:24:16;;;;;;;1.70;1.60;;;6.40;94.00;;;;;;4957119;28;20015;-75
2022/02/21 00:26:41;;;;;;;3.78;1.85;;;6.50;92.90;;;;;;4939862;29;20169;-82
2022/02/21 00:29:08;;;;;;;3.38;1.90;;;6.60;92.40;;;;;;4939816;29;20035;-75
2022/02/21 00:31:35;;;;;;;1.80;1.30;;;6.60;92.70;;;;;;4956957;28;20049;-74
2022/02/21 00:34:00;;;;;;;2.75;1.63;;;6.60;91.70;;;;;;4939776;29;20023;-81
2022/02/21 00:36:26;;;;;;;1.60;1.50;;;6.60;92.30;;;;;;4939789;29;20027;-75
2022/02/21 00:38:51;;;;;;;2.20;1.42;;;6.60;92.80;;;;;;4956773;29;20496;-75
2022/02/21 00:41:17;;;;;;;3.63;1.58;;;6.60;92.50;;;;;;4939082;29;20027;-75
2022/02/21 00:43:43;;;;;;;1.73;1.30;;;6.60;92.10;;;;;;4956628;29;20027;-75
2022/02/21 00:46:08;;;;;;;2.25;1.55;;;6.70;91.40;;;;;;4939425;29;20061;-82
2022/02/21 00:48:34;;;;;;;1.70;1.60;;;6.70;90.00;;;;;;4956608;29;20122;-81
2022/02/21 00:51:00;;;;;;;2.03;1.23;;;6.80;89.30;;;;;;4956637;28;20485;-82
2022/02/21 00:53:25;;;;;;;2.35;1.10;;;6.90;87.70;;;;;;4939339;29;20078;-75
2022/02/21 00:55:51;;;;;;;1.55;1.30;;;6.90;87.60;;;;;;4956518;28;20066;-81
2022/02/21 00:58:17;;;;;;;1.83;1.30;;;7.00;87.50;;;;;;4956519;28;20023;-82
2022/02/21 01:00:42;;;;;;;1.50;1.40;;;6.90;88.40;;;;;;4956526;29;20151;-75
2022/02/21 01:03:08;;;;;;;1.45;1.35;;;6.90;88.00;;;;;;4956385;28;20132;-75
2022/02/21 01:05:34;;;;;;;2.13;1.25;;;7.00;87.50;;;;;;4939122;29;20035;-81
2022/02/21 01:08:00;;;;;;;2.15;1.30;;;7.00;87.30;;;;;;4939031;29;20488;-74
2022/02/21 01:10:26;;;;;;;1.42;1.33;;;7.00;87.10;;;;;;4956307;28;20482;-81
2022/02/21 01:12:51;;;;;;;1.50;1.08;;;7.00;85.60;;;;;;4939105;29;20023;-75
2022/02/21 01:15:17;;;;;;;1.95;1.30;;;7.00;85.30;;;;;;4939011;29;20054;-74
2022/02/21 01:17:44;;;;;;;3.05;1.10;;;7.00;84.40;;;;;;4938907;29;20031;-82
2022/02/21 01:20:12;;;;;;;1.90;1.13;;;7.10;84.00;;;;;;4938489;29;20476;-81
2022/02/21 01:22:37;;;;;;;2.08;1.20;;;7.00;84.30;;;;;;4956143;28;20048;-81
2022/02/21 01:25:07;;;;;;;2.35;1.33;;;7.10;82.90;;;;;;4938910;29;20168;-81
2022/02/21 01:27:34;;;;;;;1.63;1.15;;;7.20;82.00;;;;;;4956004;28;20028;-81
2022/02/21 01:30:01;;;;;;;1.42;1.40;;;7.20;82.00;;;;;;4956028;28;20031;-74
2022/02/21 01:32:26;;;;;;;1.50;1.25;;;7.20;82.00;;;;;;4938679;29;20027;-74
2022/02/21 01:34:52;;;;;;;2.45;1.20;;;7.20;81.90;;;;;;4938580;29;20098;-76
2022/02/21 01:37:18;;;;;;;2.03;1.17;;;7.20;82.10;;;;;;4938615;29;20027;-81
2022/02/21 01:39:43;;;;;;;1.52;1.42;;;7.30;81.90;;;;;;4955717;29;20556;-80
2022/02/21 01:42:10;;;;;;;1.20;1.10;;;7.30;81.60;;;;;;4938432;29;20551;-82
2022/02/21 01:44:41;;;;;;;2.30;1.13;;;7.30;80.90;;;;;;4955677;28;20027;-81
2022/02/21 01:47:09;;;;;;;1.50;1.05;;;7.30;80.60;;;;;;4955737;28;20480;-75
2022/02/21 01:49:35;;;;;;;3.08;1.10;;;7.40;80.70;;;;;;4955437;28;20050;-81
2022/02/21 01:52:03;;;;;;;1.05;0.98;;;7.40;80.20;;;;;;4937519;29;20023;-82
2022/02/21 01:54:29;;;;;;;1.13;1.00;;;7.40;80.50;;;;;;4955506;29;20019;-81
2022/02/21 01:56:55;;;;;;;2.15;1.30;;;7.40;80.90;;;;;;4955509;28;20028;-75
2022/02/21 01:59:21;;;;;;;2.53;1.10;;;7.40;82.50;;;;;;4955484;28;20034;-75
2022/02/21 02:01:48;;;;;;;1.95;1.40;;;7.40;82.20;;;;;;4938133;29;20060;-82
2022/02/21 02:04:13;;;;;;;1.73;1.20;;;7.40;83.20;;;;;;4955595;28;20078;-81
2022/02/21 02:06:39;;;;;;;2.80;1.75;;;7.30;83.00;;;;;;4938198;29;20409;-74
2022/02/21 02:09:05;;;;;;;1.08;0.98;;;7.30;83.40;;;;;;4955302;29;20027;-75
2022/02/21 02:11:36;;;;;;;2.28;1.10;;;7.30;83.00;;;;;;4937981;29;20495;-74
2022/02/21 02:14:02;;;;;;;1.30;1.15;;;7.40;81.90;;;;;;4938156;29;20031;-74
2022/02/21 02:16:27;;;;;;;2.53;1.55;;;7.40;82.60;;;;;;4955279;28;20038;-74
2022/02/21 02:18:53;;;;;;;1.75;1.00;;;7.40;84.60;;;;;;4938039;29;20031;-74
2022/02/21 02:21:26;;;;;;;1.15;1.05;;;7.40;85.50;;;;;;4937997;29;20062;-74
2022/02/21 02:23:53;;;;;;;1.42;0.93;;;7.30;85.90;;;;;;4955308;29;20038;-75
2022/02/21 02:26:20;;;;;;;1.00;0.90;;;7.30;85.90;;;;;;4955084;28;20102;-74
2022/02/21 02:28:46;;;;;;;1.73;0.77;;;7.40;86.60;;;;;;4955140;29;20031;-75
2022/02/21 02:31:12;;;;;;;1.55;1.00;;;7.30;89.00;;;;;;4955365;28;20028;-74
2022/02/21 02:33:38;;;;;;;2.00;1.10;;;7.20;91.30;;;;;;4955067;29;20098;-75
2022/02/21 02:36:05;;;;;;;1.08;0.98;;;7.20;92.60;;;;;;4955059;28;20023;-81
2022/02/21 02:38:30;;;;;;;1.77;1.05;;;7.10;95.20;;;;;;4937778;29;20393;-81
2022/02/21 02:40:56;;;;;;;1.33;0.88;;;7.10;95.60;;;;;;4937827;28;20024;-81
2022/02/21 02:43:22;;;;;;;1.00;0.82;;;7.10;96.00;;;;;;4955038;28;20018;-75
2022/02/21 02:45:48;;;;;;;1.75;1.42;;;7.00;97.70;;;;;;4954815;28;20030;-81
2022/02/21 02:48:14;;;;;;;0.95;0.95;;;7.00;99.90;;;;;;4954890;28;20423;-81
2022/02/21 02:50:39;;;;;;;1.30;1.15;;;6.90;99.90;;;;;;4954960;28;20034;-74
2022/02/21 02:53:05;;;;;;;1.42;1.15;;;6.90;99.90;;;;;;4937622;29;20067;-81
2022/02/21 02:55:31;;;;;;;1.17;1.08;;;6.80;99.90;;;;;;4954991;29;20039;-81
2022/02/21 02:57:57;;;;;;;0.80;0.80;;;6.80;99.90;;;;;;4954817;28;20437;-81
2022/02/21 03:00:23;;;;;;;0.93;0.93;;;6.70;99.90;;;;;;4937638;29;20027;-81
2022/02/21 03:02:48;;;;;;;1.20;1.10;;;6.70;99.90;;;;;;4937971;29;20106;-80
2022/02/21 03:05:14;;;;;;;2.42;1.20;;;6.60;99.90;;;;;;4941369;29;20580;-74
2022/02/21 03:07:39;;;;;;;1.10;1.10;;;6.50;99.90;;;;;;4941400;29;20494;-74
2022/02/21 03:10:05;;;;;;;2.55;1.15;;;6.50;99.90;;;;;;4958353;29;20448;-82
2022/02/21 03:12:31;;;;;;;2.25;1.35;;;6.40;99.90;;;;;;4941182;29;20035;-81
2022/02/21 03:14:57;;;;;;;2.47;1.70;;;6.40;99.90;;;;;;4958313;29;20027;-76
2022/02/21 03:17:24;;;;;;;2.95;1.23;;;6.30;99.90;;;;;;4958418;28;20477;-74
2022/02/21 03:19:49;;;;;;;2.80;1.95;;;6.30;99.90;;;;;;4954004;28;20051;-75
2022/02/21 03:22:15;;;;;;;1.50;1.40;;;6.30;99.90;;;;;;4937923;29;20036;-81
2022/02/21 03:24:41;;;;;;;3.38;1.20;;;6.30;99.90;;;;;;4937907;29;20020;-76
2022/02/21 03:27:06;;;;;;;1.33;1.23;;;6.30;99.90;;;;;;4939147;29;20035;-74
2022/02/21 03:29:32;;;;;;;1.10;1.10;;;6.20;99.90;;;;;;4938828;29;20058;-76
2022/02/21 03:31:57;;;;;;;1.52;1.42;;;6.20;99.90;;;;;;4937789;29;20024;-81
2022/02/21 03:34:23;;;;;;;1.33;1.23;;;6.20;99.90;;;;;;4937793;29;20040;-75
2022/02/21 03:36:49;;;;;;;1.30;1.20;;;6.20;99.90;;;;;;4937509;29;20035;-75
2022/02/21 03:39:14;;;;;;;2.55;1.63;;;6.10;99.90;;;;;;4937581;29;20028;-81
2022/02/21 03:41:40;;;;;;;2.22;1.60;;;6.10;99.90;;;;;;4937496;29;20020;-81
2022/02/21 03:44:05;;;;;;;2.28;1.48;;;6.10;99.90;;;;;;4938796;29;20067;-81
2022/02/21 03:46:32;;;;;;;1.45;1.35;;;6.10;99.90;;;;;;4938686;29;20023;-75
2022/02/21 03:48:57;;;;;;;2.60;1.40;;;6.10;99.90;;;;;;4938616;29;20032;-81
2022/02/21 03:51:23;;;;;;;2.17;1.70;;;6.10;99.90;;;;;;4937227;29;20031;-74
2022/02/21 03:53:48;;;;;;;1.30;1.20;;;6.00;99.90;;;;;;4938573;29;20038;-81
2022/02/21 03:56:14;;;;;;;0.98;0.98;;;6.00;99.90;;;;;;4938230;29;20078;-74
2022/02/21 03:58:43;;;;;;;3.60;1.55;;;6.00;99.90;;;;;;4937301;29;20024;-74
2022/02/21 04:01:09;;;;;;;1.65;1.55;;;6.00;99.90;;;;;;4937167;29;20091;-81
2022/02/21 04:03:34;;;;;;;3.38;1.55;;;6.00;99.90;;;;;;4937179;29;20052;-81
2022/02/21 04:06:00;;;;;;;3.58;1.38;;;5.90;99.90;;;;;;4938342;29;20020;-80
2022/02/21 04:08:26;;;;;;;2.08;1.15;;;5.90;99.90;;;;;;4938313;29;20058;-81
2022/02/21 04:10:51;;;;;;;2.20;1.98;;;5.80;99.90;;;;;;4936909;29;20028;-75
2022/02/21 04:13:17;;;;;;;1.20;1.10;;;5.80;99.90;;;;;;4937080;29;20028;-80
2022/02/21 04:15:42;;;;;;;1.45;1.30;;;5.70;99.90;;;;;;4937215;29;20019;-75
2022/02/21 04:18:08;;;;;;;1.40;1.05;;;5.70;99.90;;;;;;4936818;29;20449;-75
2022/02/21 04:20:34;;;;;;;1.90;1.23;;;5.70;99.90;;;;;;4936701;29;20126;-75
2022/02/21 04:22:59;;;;;;;2.92;1.10;;;5.60;99.90;;;;;;4938114;29;20059;-74
2022/02/21 04:25:25;;;;;;;1.58;1.40;;;5.60;99.90;;;;;;4936927;29;20386;-81
2022/02/21 04:27:53;;;;;;;4.13;2.58;;;5.60;99.90;;;;;;4937865;29;20058;-74
2022/02/21 04:30:21;;;;;;;5.85;2.80;;;5.50;99.90;;;;;;4937976;29;20047;-82
2022/02/21 04:32:47;;;;;;;3.50;2.40;;;5.50;99.90;;;;;;4937819;29;20028;-81
2022/02/21 04:35:15;;;;;;;2.60;1.25;;;5.50;99.90;;;;;;4937790;29;20506;-81
2022/02/21 04:37:41;;;;;;;1.45;1.35;;;5.40;99.90;;;;;;4937796;29;20039;-74
2022/02/21 04:40:09;;;;;;;1.90;1.15;;;5.40;99.90;;;;;;4936531;29;20478;-76
2022/02/21 04:42:35;;;;;;;1.58;1.13;;;5.40;99.90;;;;;;4936497;29;20023;-81
2022/02/21 04:45:02;;;;;;;1.35;1.23;;;5.40;99.90;;;;;;4936372;29;20051;-74
2022/02/21 04:47:27;;;;;;;3.50;1.67;;;5.40;99.90;;;;;;4937512;29;20020;-74
2022/02/21 04:49:53;;;;;;;2.08;1.20;;;5.40;99.90;;;;;;4936273;29;20051;-80
2022/02/21 04:52:18;;;;;;;1.67;1.55;;;5.40;99.90;;;;;;4937435;29;20389;-74
2022/02/21 04:54:44;;;;;;;2.65;1.67;;;5.30;99.90;;;;;;4937439;29;20151;-81
2022/02/21 04:57:10;;;;;;;2.72;1.85;;;5.30;99.90;;;;;;4937474;29;20039;-74
2022/02/21 04:59:35;;;;;;;3.17;1.48;;;5.30;99.90;;;;;;4936171;29;20553;-75
2022/02/21 05:02:01;;;;;;;2.75;1.80;;;5.30;99.90;;;;;;4937413;29;20042;-73
2022/02/21 05:04:27;;;;;;;2.58;1.92;;;5.30;99.90;;;;;;4937329;29;20103;-81
2022/02/21 05:06:53;;;;;;;4.10;1.95;;;5.30;99.90;;;;;;4927914;29;20024;-80
2022/02/21 05:09:19;;;;;;;1.50;1.40;;;5.20;99.90;;;;;;4916934;29;20036;-74
2022/02/21 05:11:44;;;;;;;1.73;1.63;;;5.30;99.90;;;;;;4918118;29;20032;-81
2022/02/21 05:14:10;;;;;;;5.32;1.77;;;5.30;99.90;;;;;;4916817;29;20028;-74
2022/02/21 05:16:36;;;;;;;2.20;1.40;;;5.30;99.90;;;;;;4918121;29;20475;-73
2022/02/21 05:19:02;;;;;;;3.53;1.67;;;5.20;99.90;;;;;;4918178;29;20039;-81
2022/02/21 05:21:31;;;;;;;2.03;1.60;;;5.20;99.90;;;;;;4916891;29;20052;-81
2022/02/21 05:23:58;;;;;;;3.53;2.30;;;5.20;99.90;;;;;;4918098;29;20031;-81
2022/02/21 05:26:24;;;;;;;2.40;1.90;;;5.20;99.90;;;;;;4917720;29;20038;-81
2022/02/21 05:28:52;;;;;;;2.05;1.85;;;5.30;99.90;;;;;;4917852;29;20127;-81
2022/02/21 05:31:18;;;;;;;2.85;1.70;;;5.20;99.90;;;;;;4917753;29;20028;-73
2022/02/21 05:33:43;;;;;;;3.42;2.25;;;5.20;99.90;;;;;;4916578;29;20367;-74
2022/02/21 05:36:09;;;;;;;2.45;1.63;;;5.20;99.90;;;;;;4917635;29;20080;-74
2022/02/21 05:38:35;;;;;;;2.92;2.00;;;5.20;99.90;;;;;;4916504;29;20055;-75
2022/02/21 05:41:00;;;;;;;4.05;2.90;;;5.20;99.90;;;;;;4917709;29;20107;-81
2022/02/21 05:43:26;;;;;;;4.80;3.20;;;5.20;99.90;;;;;;4916393;29;20368;-80
2022/02/21 05:45:51;;;;;;;2.78;2.40;;;5.20;99.90;;;;;;4916305;29;20086;-74
2022/02/21 05:48:17;;;;;;;3.08;1.95;;;5.20;99.90;;;;;;4916189;29;20083;-75
2022/02/21 05:50:42;;;;;;;2.72;1.90;;;5.20;99.90;;;;;;4917510;29;20111;-81
2022/02/21 05:53:08;;;;;;;3.65;2.50;;;5.20;99.90;;;;;;4917438;29;20470;-75
2022/02/21 05:55:33;;;;;;;3.22;1.90;;;5.30;99.90;;;;;;4916917;29;20036;-82
2022/02/21 05:57:59;;;;;;;3.47;2.00;;;5.30;99.90;;;;;;4936156;29;20032;-81
2022/02/21 06:00:26;;;;;;;2.88;2.17;;;5.40;99.90;;;;;;4933454;29;20043;-81
2022/02/21 06:02:52;;;;;;;2.70;2.40;;;5.40;99.90;;;;;;4917323;29;20016;-81
2022/02/21 06:05:18;;;;;;;4.85;2.45;;;5.40;99.90;;;;;;4917048;29;20029;-75
2022/02/21 06:07:44;;;;;;;3.10;2.45;;;5.40;99.90;;;;;;4915827;29;20039;-80
2022/02/21 06:10:10;;;;;;;3.65;3.17;;;5.40;99.90;;;;;;4915650;29;20040;-75
2022/02/21 06:12:35;;;;;;;2.78;2.13;;;5.40;99.90;;;;;;4915534;29;20056;-80
2022/02/21 06:15:01;;;;;;;3.22;2.38;;;5.40;99.90;;;;;;4915981;29;20021;-81
2022/02/21 06:17:27;;;;;;;3.22;2.42;;;5.40;99.90;;;;;;4915864;29;20071;-80
2022/02/21 06:19:52;;;;;;;2.80;2.28;;;5.50;99.90;;;;;;4920531;29;20051;-82
2022/02/21 06:22:18;;;;;;;2.92;2.30;;;5.50;99.90;;;;;;4936050;29;20108;-74
2022/02/21 06:24:44;;;;;;;2.60;2.40;;;5.50;99.90;;;;;;4934173;28;20019;-74
2022/02/21 06:27:10;;;;;;;6.68;4.95;;;5.50;99.90;;;;;;4943726;28;20485;-74
2022/02/21 06:29:36;;;;;;;2.67;2.05;;;5.50;99.90;;;;;;4924693;29;20123;-74
2022/02/21 06:32:01;;;;;;;3.75;2.22;;;5.50;99.90;;;;;;4933461;28;20040;-74
2022/02/21 06:34:27;;;;;;;2.90;1.65;;;5.50;99.90;;;;;;4926813;29;20055;-75
2022/02/21 06:36:53;;;;;;;2.40;1.80;;;5.60;99.90;;;;;;4933318;29;20123;-75
2022/02/21 06:39:19;;;;;;;4.25;2.85;;;5.60;99.90;;;;;;4938198;29;20073;-74
2022/02/21 06:41:49;;;;;;;2.95;2.15;;;5.60;99.90;;;;;;4930943;29;20123;-74
2022/02/21 06:44:15;;;;;;;2.63;2.00;;;5.60;99.90;;;;;;4940271;29;20077;-74
2022/02/21 06:46:41;;;;;;;3.22;1.92;;;5.60;99.90;;;;;;4951174;28;20107;-74
2022/02/21 06:49:08;;;;;;;2.80;1.85;;;5.70;99.90;;;;;;4942669;28;20416;-81
2022/02/21 06:51:36;;;;;;;3.53;2.10;;;5.70;99.90;;;;;;4938784;28;20062;-81
2022/02/21 06:54:03;;;;;;;2.78;1.83;;;5.70;99.90;;;;;;4931854;29;20023;-81
2022/02/21 06:56:30;;;;;;;3.58;2.20;;;5.70;99.90;;;;;;4946902;28;20024;-81
2022/02/21 06:58:55;;;;;;;3.97;1.70;;;5.70;99.90;;;;;;4927440;29;20023;-81
2022/02/21 07:01:21;;;;;;;4.03;2.00;;;5.70;99.90;;;;;;4947228;28;20020;-82
2022/02/21 07:03:46;;;;;;;6.65;2.40;;;5.70;99.90;;;;;;4947861;29;20139;-80
2022/02/21 07:06:12;;;;;;;4.45;2.53;;;5.70;99.90;;;;;;4948883;29;20056;-81
2022/02/21 07:08:37;;;;;;;5.60;2.55;;;5.70;99.90;;;;;;4931212;29;20043;-81
2022/02/21 07:11:03;;;;;;;3.72;1.83;;;5.70;99.90;;;;;;4947350;28;20490;-81
2022/02/21 07:13:29;;;;;;;2.00;1.83;;;5.70;99.90;;;;;;4941432;29;20471;-80
2022/02/21 07:15:55;;;;;;;2.28;1.95;;;5.70;99.90;;;;;;4935292;29;20032;-81
2022/02/21 07:18:20;;;;;;;3.63;1.90;;;5.70;99.90;;;;;;4940038;29;20019;-80
2022/02/21 07:20:46;;;;;;;3.55;1.77;;;5.70;99.90;;;;;;4930982;29;20134;-82
2022/02/21 07:23:12;;;;;;;2.97;1.85;;;5.70;99.90;;;;;;4946925;28;20023;-81
2022/02/21 07:25:38;;;;;;;2.53;2.17;;;5.70;99.90;;;;;;4953804;29;20030;-81
2022/02/21 07:28:04;;;;;;;2.63;2.35;;;5.80;99.90;;;;;;4932089;29;20040;-81
2022/02/21 07:30:30;;;;;;;4.03;3.08;;;5.80;99.90;;;;;;4946389;28;20110;-82
2022/02/21 07:32:57;;;;;;;3.53;1.83;;;5.80;99.90;;;;;;4945877;29;20389;-82
2022/02/21 07:35:23;;;;;;;3.88;1.90;;;5.80;99.90;;;;;;4946077;29;20075;-82
2022/02/21 07:37:49;;;;;;;2.50;2.13;;;5.80;99.90;;;;;;4952096;29;20031;-81
2022/02/21 07:40:15;;;;;;;3.25;1.90;;;5.90;99.90;;;;;;4940508;29;20086;-81
2022/02/21 07:42:49;;;;;;;2.65;1.80;;;5.90;99.90;;;;;;4957669;29;20043;-81
2022/02/21 07:45:16;;;;;;;2.20;1.73;;;5.90;99.90;;;;;;4940415;29;20055;-82
2022/02/21 07:47:47;;;;;;;3.17;2.55;;;5.90;99.90;;;;;;4955294;28;20022;-81
2022/02/21 07:50:14;;;;;;;4.05;2.30;;;6.00;99.90;;;;;;4931230;29;20027;-81
2022/02/21 07:52:40;;;;;;;3.67;1.80;;;6.00;99.90;;;;;;4947270;29;20027;-81
2022/02/21 07:55:07;;;;;;;2.25;1.95;;;6.00;99.90;;;;;;4931871;29;20019;-81
2022/02/21 07:57:33;;;;;;;3.30;1.90;;;6.00;99.90;;;;;;4950276;28;20091;-81
2022/02/21 07:59:59;;;;;;;2.42;2.22;;;6.00;99.90;;;;;;4946716;29;20026;-81
2022/02/21 08:02:25;;;;;;;3.50;2.28;;;6.00;99.90;;;;;;4931047;29;20466;-81
2022/02/21 08:04:50;;;;;;;2.83;2.22;;;6.10;99.90;;;;;;4929143;29;20031;-80
2022/02/21 08:07:16;;;;;;;3.65;2.20;;;6.10;99.90;;;;;;4947254;29;20031;-82
2022/02/21 08:09:42;;;;;;;2.85;2.10;;;6.10;99.90;;;;;;4951863;28;20055;-82
2022/02/21 08:12:08;;;;;;;2.65;2.22;;;6.10;99.90;;;;;;4937085;29;20110;-81
2022/02/21 08:14:35;;;;;;;2.28;2.08;;;6.10;99.90;;;;;;4934035;29;20023;-81
2022/02/21 08:17:01;;;;;;;3.72;2.45;;;6.10;99.90;;;;;;4934026;29;20028;-81
2022/02/21 08:19:27;;;;;;;3.42;2.10;;;6.10;99.90;;;;;;4948667;29;20026;-82
2022/02/21 08:21:52;;;;;;;5.88;3.10;;;6.10;99.90;;;;;;4933523;29;20037;-82
2022/02/21 08:24:20;;;;;;;3.72;2.10;;;6.10;99.90;;;;;;4939637;29;20019;-81
2022/02/21 08:26:45;;;;;;;3.42;2.22;;;6.20;99.90;;;;;;4933583;29;20023;-81
2022/02/21 08:29:11;;;;;;;2.72;2.20;;;6.20;99.90;;;;;;4957040;28;20031;-80
2022/02/21 08:31:37;;;;;;;3.83;2.40;;;6.20;99.90;;;;;;4958842;28;20022;-82
2022/02/21 08:34:02;;;;;;;4.05;2.10;;;6.30;99.90;;;;;;4951255;28;20022;-81
2022/02/21 08:36:28;;;;;;;5.22;2.30;;;6.30;99.90;;;;;;4952404;28;20027;-81
2022/02/21 08:38:54;;;;;;;2.60;1.92;;;6.40;99.90;;;;;;4965035;28;20035;-81
2022/02/21 08:41:20;;;;;;;2.67;2.20;;;6.40;99.90;;;;;;4969861;28;20441;-81
2022/02/21 08:43:46;;;;;;;3.08;2.22;;;6.40;99.90;;;;;;4973361;28;20034;-81
2022/02/21 08:46:12;;;;;;;4.30;2.28;;;6.50;99.90;;;;;;4975194;28;20058;-80
2022/02/21 08:48:37;;;;;;;2.53;2.33;;;6.60;99.90;;;;;;4963972;28;20169;-81
2022/02/21 08:51:03;;;;;;;3.50;2.50;;;6.60;99.90;;;;;;4952814;28;20037;-81
2022/02/21 08:53:29;;;;;;;3.03;2.30;;;6.70;99.90;;;;;;4975083;28;20027;-81
2022/02/21 08:55:54;;;;;;;4.40;2.42;;;6.80;99.90;;;;;;4973398;28;20476;-82
2022/02/21 08:58:20;;;;;;;3.38;2.50;;;6.80;99.90;;;;;;4961706;28;20022;-82
2022/02/21 09:00:46;;;;;;;3.45;2.47;;;6.90;99.90;;;;;;4953134;28;20022;-81
2022/02/21 09:03:11;;;;;;;3.30;2.10;;;7.00;99.90;;;;;;4970954;28;20097;-81
2022/02/21 09:05:37;;;;;;;2.88;2.65;;;7.00;99.90;;;;;;4963915;28;20019;-81
2022/02/21 09:08:04;;;;;;;2.80;1.90;;;7.00;99.90;;;;;;4944489;28;20474;-81
2022/02/21 09:10:30;;;;;;;2.08;1.88;;;7.10;99.90;;;;;;4975145;28;20058;-81
2022/02/21 09:12:56;;;;;;;1.70;1.60;;;7.10;99.90;;;;;;4975229;28;20050;-80
2022/02/21 09:15:23;;;;;;;1.90;1.70;;;7.10;99.90;;;;;;4958026;28;20019;-81
2022/02/21 09:17:48;;;;;;;2.42;1.80;;;7.10;99.90;;;;;;4974649;28;20066;-80
2022/02/21 09:20:15;;;;;;;2.38;1.65;;;7.20;99.90;;;;;;4963800;28;20043;-81
2022/02/21 09:22:41;;;;;;;3.35;2.03;;;7.20;99.90;;;;;;4965937;28;20489;-82
2022/02/21 09:25:09;;;;;;;3.67;1.67;;;7.20;99.90;;;;;;4941323;28;20547;-82
2022/02/21 09:27:35;;;;;;;1.90;1.60;;;7.30;99.90;;;;;;4957549;28;20090;-81
2022/02/21 09:30:04;;;;;;;2.78;1.65;;;7.30;99.90;;;;;;4956948;28;20059;-81
2022/02/21 09:32:30;;;;;;;1.75;1.52;;;7.30;99.90;;;;;;4955964;28;20012;-81
2022/02/21 09:34:56;;;;;;;2.15;1.90;;;7.30;99.90;;;;;;4966147;28;20377;-82
2022/02/21 09:37:22;;;;;;;2.95;1.98;;;7.40;99.90;;;;;;4969449;28;20452;-76
2022/02/21 09:39:48;;;;;;;2.53;1.50;;;7.40;99.90;;;;;;4956995;28;20069;-77
2022/02/21 09:42:13;;;;;;;3.47;2.20;;;7.50;99.90;;;;;;4956975;28;20030;-80
2022/02/21 09:44:39;;;;;;;2.90;1.85;;;7.50;99.90;;;;;;4974250;28;20059;-76
2022/02/21 09:47:06;;;;;;;2.25;2.08;;;7.60;99.90;;;;;;4956738;28;20054;-76
2022/02/21 09:49:31;;;;;;;1.80;1.50;;;7.70;99.90;;;;;;4951149;28;20082;-77
2022/02/21 09:51:57;;;;;;;2.45;1.73;;;7.70;99.90;;;;;;4972858;28;20022;-76
2022/02/21 09:54:24;;;;;;;3.50;2.00;;;7.70;99.90;;;;;;4955430;28;20022;-76
2022/02/21 09:56:51;;;;;;;2.28;1.73;;;7.70;99.90;;;;;;4973477;28;20109;-76
2022/02/21 09:59:18;;;;;;;3.67;1.85;;;7.60;99.90;;;;;;4970633;28;20492;-76
2022/02/21 10:01:45;;;;;;;2.53;1.92;;;7.60;99.90;;;;;;4972154;28;20034;-76
2022/02/21 10:04:22;;;;;;;1.88;1.70;;;7.60;99.90;;;;;;4955624;28;20408;-77
2022/02/21 10:06:50;;;;;;;1.88;1.75;;;7.50;99.90;;;;;;4972973;28;20019;-76
2022/02/21 10:09:16;;;;;;;2.38;1.70;;;7.50;99.90;;;;;;4954982;28;20038;-75
2022/02/21 10:11:48;;;;;;;2.22;1.80;;;7.50;99.90;;;;;;4972566;28;20034;-76
2022/02/21 10:14:20;;;;;;;4.20;1.75;;;7.50;99.90;;;;;;4973235;28;20022;-76
2022/02/21 10:16:47;;;;;;;2.13;1.42;;;7.50;99.90;;;;;;4956624;28;20030;-76
2022/02/21 10:19:15;;;;;;;2.72;2.00;;;7.50;99.90;;;;;;4974066;28;20022;-75
2022/02/21 10:21:49;;;;;;;2.05;1.70;;;7.50;99.90;;;;;;4974301;28;20063;-75
2022/02/21 10:24:14;;;;;;;2.97;2.63;;;7.40;99.90;;;;;;4956848;28;20038;-75
2022/02/21 10:26:43;;;;;;;4.28;2.03;;;7.20;99.90;;;;;;4974014;28;20440;-77
2022/02/21 10:29:10;;;;;;;2.38;1.50;;;6.30;99.90;;;;;;4966222;28;20460;-77
2022/02/21 10:31:35;;;;;;;1.48;1.38;;;5.80;99.90;;;;;;4953954;28;20027;-77
2022/02/21 10:34:07;;;;;;;1.30;1.20;;;5.60;99.90;;;;;;4973408;28;20082;-78
2022/02/21 10:36:37;;;;;;;2.20;1.83;;;5.40;99.90;;;;;;4955895;28;20037;-78
2022/02/21 10:39:06;;;;;;;4.07;2.25;;;5.20;99.90;;;;;;4973888;28;20481;-77
2022/02/21 10:41:50;;;;;;;2.50;2.17;;;5.20;99.90;;;;;;4973965;28;20030;-78
2022/02/21 10:44:19;;;;;;;2.15;1.67;;;5.10;99.90;;;;;;4974065;28;20050;-77
2022/02/21 10:47:10;;;;;;;1.90;1.80;;;5.10;99.90;;;;;;4973794;28;20030;-78
2022/02/21 10:49:38;;;;;;;1.75;1.65;;;5.10;99.90;;;;;;4952491;28;20054;-77
2022/02/21 10:52:12;;;;;;;2.13;1.73;;;5.10;99.90;;;;;;4956613;28;20027;-76
2022/02/21 10:54:37;;;;;;;2.13;2.03;;;5.00;99.90;;;;;;4973934;28;20030;-77
2022/02/21 10:57:10;;;;;;;1.92;1.70;;;4.90;99.90;;;;;;4972692;28;20114;-77
2022/02/21 10:59:36;;;;;;;;;;;4.90;99.90;;;;;;4956985;28;20023;-77
2022/02/21 11:02:03;;;;;;;3.33;2.08;;;4.90;99.90;;;;;;4956548;28;20005;-77
2022/02/21 11:04:30;;;;;;;4.55;3.05;;;4.90;99.90;;;;;;4973773;28;20106;-77
2022/02/21 11:06:57;;;;;;;5.15;3.17;;;4.90;99.90;;;;;;4956489;28;20365;-76
2022/02/21 11:09:28;;;;;;;4.80;3.33;;;4.90;99.90;;;;;;4956338;28;20558;-77
2022/02/21 11:11:58;;;;;;;6.30;3.67;;;4.90;99.90;;;;;;4973789;28;20257;-77
2022/02/21 11:14:27;;;;;;;8.52;4.90;;;5.00;99.90;;;;;;4973803;28;20027;-76
2022/02/21 11:16:57;;;;;;;14.68;6.88;;;5.00;99.90;;;;;;4950821;28;20385;-77
2022/02/21 11:19:24;;;;;;;12.75;7.72;;;5.00;99.90;;;;;;4972733;28;20376;-77
2022/02/21 11:21:50;;;;;;;8.52;6.72;;;5.00;99.90;;;;;;4972830;28;20050;-77
2022/02/21 11:24:22;;;;;;;12.10;7.85;;;5.10;99.90;;;;;;4956649;28;20400;-77
2022/02/21 11:27:02;;;;;;;15.80;9.53;;;5.10;99.90;;;;;;4959072;28;20038;-78
2022/02/21 11:29:48;;;;;;;14.75;9.45;;;5.20;99.90;;;;;;4959064;28;20089;-77
2022/02/21 11:32:21;;;;;;;12.82;9.23;;;5.30;99.90;;;;;;4959062;28;20034;-78
2022/02/21 11:35:07;;;;;;;15.80;10.35;;;5.40;99.90;;;;;;4958988;28;20061;-77
2022/02/21 11:37:32;;;;;;;13.80;9.98;;;5.40;99.90;;;;;;4976263;28;20038;-77
2022/02/21 11:39:59;;;;;;;20.08;11.52;;;5.50;99.90;;;;;;4976616;28;20026;-76
2022/02/21 11:42:30;;;;;;;20.40;10.27;;;5.60;99.90;;;;;;4953484;28;20035;-77
2022/02/21 11:44:58;;;;;;;13.70;9.45;;;5.60;99.90;;;;;;4957498;28;20035;-77
2022/02/21 11:47:37;;;;;;;13.30;8.98;;;5.70;99.90;;;;;;4976128;28;20101;-77
2022/02/21 11:50:20;;;;;;;9.65;6.68;;;5.70;99.90;;;;;;4958733;28;20034;-77
2022/02/21 11:52:50;;;;;;;7.55;5.68;;;5.70;99.90;;;;;;4958955;28;20030;-77
2022/02/21 11:55:35;;;;;;;5.85;3.50;;;5.70;99.90;;;;;;4972475;28;20412;-76
2022/02/21 11:58:16;;;;;;;5.57;3.05;;;5.60;99.90;;;;;;4975717;28;20045;-76
2022/02/21 12:00:52;;;;;;;5.75;3.20;;;5.70;99.90;;;;;;4959196;28;20492;-76
2022/02/21 12:03:18;;;;;;;7.32;3.90;;;5.60;99.90;;;;;;4976607;28;20102;-76
2022/02/21 12:05:45;;;;;;;9.00;4.10;;;5.60;99.90;;;;;;4976591;28;20054;-78
2022/02/21 12:08:20;;;;;;;4.95;2.90;;;5.60;99.90;;;;;;4958672;28;20105;-77
2022/02/21 12:11:03;;;;;;;4.53;2.67;;;5.60;99.90;;;;;;4976292;28;20030;-76
2022/02/21 12:13:56;;;;;;;5.35;3.35;;;5.60;99.90;;;;;;4959129;28;20562;-76
2022/02/21 12:16:23;;;;;;;3.25;1.95;;;5.60;99.90;;;;;;4976422;28;20381;-76
2022/02/21 12:18:51;;;;;;;4.32;2.30;;;5.50;99.90;;;;;;4975403;28;20031;-76
2022/02/21 12:21:30;;;;;;;10.05;5.10;;;5.50;99.90;;;;;;4951002;28;20509;-75
2022/02/21 12:23:56;;;;;;;13.30;6.93;;;5.60;99.90;;;;;;4941975;28;20035;-77
2022/02/21 12:26:32;;;;;;;24.85;10.75;;;5.60;99.90;;;;;;4972918;28;20483;-77
2022/02/21 12:29:11;;;;;;;23.35;10.40;;;5.60;98.90;;;;;;4960279;28;20494;-76
2022/02/21 12:31:59;;;;;;;14.32;7.90;;;5.60;96.80;;;;;;4938814;29;20051;-77
2022/02/21 12:34:30;;;;;;;15.85;7.65;;;5.70;94.30;;;;;;4938334;29;20049;-77
2022/02/21 12:37:04;;;;;;;21.17;8.68;;;5.70;93.60;;;;;;4954891;28;20116;-77
2022/02/21 12:39:38;;;;;;;18.48;9.23;;;5.70;93.60;;;;;;4955277;28;20070;-77
2022/02/21 12:42:05;;;;;;;26.20;10.27;;;5.70;93.80;;;;;;4939246;28;20474;-76
2022/02/21 12:44:31;;;;;;;34.00;14.77;;;5.80;89.10;;;;;;4955613;28;20122;-76
2022/02/21 12:47:00;;;;;;;30.83;14.43;;;5.80;86.50;;;;;;4943591;28;20541;-80
2022/02/21 12:49:32;;;;;;;24.73;12.88;;;5.90;88.10;;;;;;4950833;28;20490;-81
2022/02/21 12:52:09;;;;;;;18.42;8.90;;;5.90;90.80;;;;;;4956183;28;20023;-82
2022/02/21 12:54:54;;;;;;;16.88;7.95;;;6.00;86.00;;;;;;4944368;28;20051;-81
2022/02/21 12:57:22;;;;;;;8.80;5.93;;;6.00;84.20;;;;;;4955180;28;20052;-81